sensor_id;sensor_type;location;lat;lon;timestamp;P1;durP1;ratioP1;P2;durP2;ratioP2
77362;SDS011;66428;47.322;9.432;2024-03-22T00:01:10;4.65;;;4.18;;
77362;SDS011;66428;47.322;9.432;2024-03-22T00:03:49;4.82;;;3.80;;
77362;SDS011;66428;47.322;9.432;2024-03-22T00:06:24;5.25;;;3.25;;
77362;SDS011;66428;47.322;9.432;2024-03-22T00:08:59;3.80;;;2.95;;
77362;SDS011;66428;47.322;9.432;2024-03-22T00:11:46;4.45;;;2.45;;
77362;SDS011;66428;47.322;9.432;2024-03-22T00:14:48;3.78;;;2.63;;
77362;SDS011;66428;47.322;9.432;2024-03-22T00:17:31;3.08;;;2.42;;
77362;SDS011;66428;47.322;9.432;2024-03-22T00:24:01;4.72;;;2.22;;
77362;SDS011;66428;47.322;9.432;2024-03-22T00:27:14;5.18;;;2.83;;
77362;SDS011;66428;47.322;9.432;2024-03-22T00:29:46;3.47;;;2.58;;
77362;SDS011;66428;47.322;9.432;2024-03-22T00:32:52;6.35;;;2.85;;
77362;SDS011;66428;47.322;9.432;2024-03-22T00:35:33;4.28;;;2.33;;
77362;SDS011;66428;47.322;9.432;2024-03-22T00:38:00;5.65;;;3.15;;
77362;SDS011;66428;47.322;9.432;2024-03-22T00:40:29;4.13;;;2.90;;
77362;SDS011;66428;47.322;9.432;2024-03-22T00:42:58;4.38;;;2.97;;
77362;SDS011;66428;47.322;9.432;2024-03-22T00:45:27;4.63;;;3.25;;
77362;SDS011;66428;47.322;9.432;2024-03-22T00:47:54;5.70;;;2.92;;
77362;SDS011;66428;47.322;9.432;2024-03-22T00:50:23;3.85;;;2.80;;
77362;SDS011;66428;47.322;9.432;2024-03-22T00:52:50;3.75;;;2.65;;
77362;SDS011;66428;47.322;9.432;2024-03-22T00:55:22;3.53;;;2.38;;
77362;SDS011;66428;47.322;9.432;2024-03-22T00:58:07;4.18;;;2.45;;
77362;SDS011;66428;47.322;9.432;2024-03-22T01:00:44;4.32;;;2.08;;
77362;SDS011;66428;47.322;9.432;2024-03-22T01:03:16;5.68;;;2.30;;
77362;SDS011;66428;47.322;9.432;2024-03-22T01:05:44;4.82;;;2.67;;
77362;SDS011;66428;47.322;9.432;2024-03-22T01:08:11;5.00;;;2.80;;
77362;SDS011;66428;47.322;9.432;2024-03-22T01:10:40;3.17;;;2.55;;
77362;SDS011;66428;47.322;9.432;2024-03-22T01:13:12;4.65;;;3.17;;
77362;SDS011;66428;47.322;9.432;2024-03-22T01:15:39;4.07;;;2.60;;
77362;SDS011;66428;47.322;9.432;2024-03-22T01:18:11;3.20;;;2.50;;
77362;SDS011;66428;47.322;9.432;2024-03-22T01:20:38;3.60;;;2.58;;
77362;SDS011;66428;47.322;9.432;2024-03-22T01:23:08;4.68;;;2.60;;
77362;SDS011;66428;47.322;9.432;2024-03-22T01:25:36;6.82;;;2.70;;
77362;SDS011;66428;47.322;9.432;2024-03-22T01:28:23;6.65;;;2.85;;
77362;SDS011;66428;47.322;9.432;2024-03-22T01:30:56;4.88;;;3.00;;
77362;SDS011;66428;47.322;9.432;2024-03-22T01:33:38;4.35;;;3.00;;
77362;SDS011;66428;47.322;9.432;2024-03-22T01:36:22;4.07;;;3.15;;
77362;SDS011;66428;47.322;9.432;2024-03-22T01:38:57;4.72;;;2.63;;
77362;SDS011;66428;47.322;9.432;2024-03-22T01:41:31;3.92;;;2.92;;
77362;SDS011;66428;47.322;9.432;2024-03-22T01:44:26;3.47;;;2.45;;
77362;SDS011;66428;47.322;9.432;2024-03-22T01:47:00;3.83;;;2.60;;
77362;SDS011;66428;47.322;9.432;2024-03-22T01:49:39;4.20;;;3.03;;
77362;SDS011;66428;47.322;9.432;2024-03-22T01:52:15;7.03;;;2.95;;
77362;SDS011;66428;47.322;9.432;2024-03-22T01:54:46;4.47;;;2.78;;
77362;SDS011;66428;47.322;9.432;2024-03-22T01:57:14;3.67;;;2.97;;
77362;SDS011;66428;47.322;9.432;2024-03-22T01:59:48;6.25;;;3.33;;
77362;SDS011;66428;47.322;9.432;2024-03-22T02:02:15;5.47;;;3.05;;
77362;SDS011;66428;47.322;9.432;2024-03-22T02:04:45;4.72;;;3.05;;
77362;SDS011;66428;47.322;9.432;2024-03-22T02:07:14;5.80;;;2.67;;
77362;SDS011;66428;47.322;9.432;2024-03-22T02:09:45;5.65;;;2.65;;
77362;SDS011;66428;47.322;9.432;2024-03-22T02:12:16;4.13;;;2.88;;
77362;SDS011;66428;47.322;9.432;2024-03-22T02:14:49;5.43;;;3.17;;
77362;SDS011;66428;47.322;9.432;2024-03-22T02:17:22;6.78;;;3.20;;
77362;SDS011;66428;47.322;9.432;2024-03-22T02:19:56;5.18;;;2.78;;
77362;SDS011;66428;47.322;9.432;2024-03-22T02:22:22;4.68;;;3.15;;
77362;SDS011;66428;47.322;9.432;2024-03-22T02:24:54;5.22;;;3.00;;
77362;SDS011;66428;47.322;9.432;2024-03-22T02:27:21;5.97;;;2.92;;
77362;SDS011;66428;47.322;9.432;2024-03-22T02:29:56;4.57;;;3.10;;
77362;SDS011;66428;47.322;9.432;2024-03-22T02:34:53;4.15;;;2.95;;
77362;SDS011;66428;47.322;9.432;2024-03-22T02:37:20;5.40;;;3.17;;
77362;SDS011;66428;47.322;9.432;2024-03-22T02:39:49;3.75;;;2.70;;
77362;SDS011;66428;47.322;9.432;2024-03-22T02:42:22;4.00;;;3.03;;
77362;SDS011;66428;47.322;9.432;2024-03-22T02:44:50;6.75;;;3.17;;
77362;SDS011;66428;47.322;9.432;2024-03-22T02:47:19;6.30;;;3.25;;
77362;SDS011;66428;47.322;9.432;2024-03-22T02:49:47;4.07;;;2.80;;
77362;SDS011;66428;47.322;9.432;2024-03-22T02:52:14;3.75;;;2.50;;
77362;SDS011;66428;47.322;9.432;2024-03-22T02:54:52;7.93;;;3.08;;
77362;SDS011;66428;47.322;9.432;2024-03-22T02:57:22;5.28;;;2.70;;
77362;SDS011;66428;47.322;9.432;2024-03-22T02:59:50;7.85;;;3.17;;
77362;SDS011;66428;47.322;9.432;2024-03-22T03:02:26;3.80;;;3.08;;
77362;SDS011;66428;47.322;9.432;2024-03-22T03:04:53;7.63;;;2.58;;
77362;SDS011;66428;47.322;9.432;2024-03-22T03:07:27;4.38;;;3.08;;
77362;SDS011;66428;47.322;9.432;2024-03-22T03:09:58;7.00;;;3.20;;
77362;SDS011;66428;47.322;9.432;2024-03-22T03:12:40;3.97;;;2.78;;
77362;SDS011;66428;47.322;9.432;2024-03-22T03:15:14;6.07;;;3.53;;
77362;SDS011;66428;47.322;9.432;2024-03-22T03:17:40;4.95;;;3.28;;
77362;SDS011;66428;47.322;9.432;2024-03-22T03:20:12;3.50;;;2.70;;
77362;SDS011;66428;47.322;9.432;2024-03-22T03:22:50;4.63;;;2.97;;
77362;SDS011;66428;47.322;9.432;2024-03-22T03:25:18;6.22;;;3.30;;
77362;SDS011;66428;47.322;9.432;2024-03-22T03:27:49;4.90;;;3.13;;
77362;SDS011;66428;47.322;9.432;2024-03-22T03:30:22;5.13;;;2.95;;
77362;SDS011;66428;47.322;9.432;2024-03-22T03:32:48;5.32;;;3.05;;
77362;SDS011;66428;47.322;9.432;2024-03-22T03:35:19;5.25;;;3.15;;
77362;SDS011;66428;47.322;9.432;2024-03-22T03:38:21;4.93;;;3.15;;
77362;SDS011;66428;47.322;9.432;2024-03-22T03:40:58;4.45;;;2.70;;
77362;SDS011;66428;47.322;9.432;2024-03-22T03:44:15;5.10;;;3.35;;
77362;SDS011;66428;47.322;9.432;2024-03-22T03:47:18;6.30;;;3.88;;
77362;SDS011;66428;47.322;9.432;2024-03-22T03:50:06;6.07;;;3.72;;
77362;SDS011;66428;47.322;9.432;2024-03-22T03:52:54;6.70;;;3.47;;
77362;SDS011;66428;47.322;9.432;2024-03-22T03:55:59;4.28;;;2.95;;
77362;SDS011;66428;47.322;9.432;2024-03-22T03:58:34;6.07;;;3.47;;
77362;SDS011;66428;47.322;9.432;2024-03-22T04:01:14;3.67;;;2.75;;
77362;SDS011;66428;47.322;9.432;2024-03-22T04:03:52;4.80;;;2.90;;
77362;SDS011;66428;47.322;9.432;2024-03-22T04:06:31;5.82;;;2.42;;
77362;SDS011;66428;47.322;9.432;2024-03-22T04:09:10;4.25;;;2.75;;
77362;SDS011;66428;47.322;9.432;2024-03-22T04:11:49;4.65;;;2.75;;
77362;SDS011;66428;47.322;9.432;2024-03-22T04:14:20;4.97;;;2.97;;
77362;SDS011;66428;47.322;9.432;2024-03-22T04:16:51;3.97;;;2.92;;
77362;SDS011;66428;47.322;9.432;2024-03-22T04:19:24;6.00;;;2.90;;
77362;SDS011;66428;47.322;9.432;2024-03-22T04:25:55;4.43;;;2.97;;
77362;SDS011;66428;47.322;9.432;2024-03-22T04:29:11;4.85;;;2.97;;
77362;SDS011;66428;47.322;9.432;2024-03-22T04:32:07;3.53;;;2.50;;
77362;SDS011;66428;47.322;9.432;2024-03-22T04:34:52;3.67;;;2.50;;
77362;SDS011;66428;47.322;9.432;2024-03-22T04:37:47;4.18;;;3.05;;
77362;SDS011;66428;47.322;9.432;2024-03-22T04:40:34;4.50;;;3.25;;
77362;SDS011;66428;47.322;9.432;2024-03-22T04:43:07;4.43;;;3.13;;
77362;SDS011;66428;47.322;9.432;2024-03-22T04:46:03;4.63;;;3.15;;
77362;SDS011;66428;47.322;9.432;2024-03-22T04:48:43;5.38;;;3.03;;
77362;SDS011;66428;47.322;9.432;2024-03-22T04:51:21;4.30;;;3.08;;
77362;SDS011;66428;47.322;9.432;2024-03-22T04:54:07;3.92;;;2.92;;
77362;SDS011;66428;47.322;9.432;2024-03-22T04:56:39;5.30;;;2.85;;
77362;SDS011;66428;47.322;9.432;2024-03-22T04:59:20;3.20;;;2.42;;
77362;SDS011;66428;47.322;9.432;2024-03-22T05:01:53;4.65;;;2.67;;
77362;SDS011;66428;47.322;9.432;2024-03-22T05:04:43;6.03;;;3.10;;
77362;SDS011;66428;47.322;9.432;2024-03-22T05:07:23;5.45;;;3.10;;
77362;SDS011;66428;47.322;9.432;2024-03-22T05:10:04;4.60;;;2.83;;
77362;SDS011;66428;47.322;9.432;2024-03-22T05:21:28;5.25;;;2.90;;
77362;SDS011;66428;47.322;9.432;2024-03-22T05:24:41;4.75;;;3.65;;
77362;SDS011;66428;47.322;9.432;2024-03-22T05:27:11;5.28;;;3.28;;
77362;SDS011;66428;47.322;9.432;2024-03-22T05:29:49;4.60;;;3.20;;
77362;SDS011;66428;47.322;9.432;2024-03-22T05:32:26;4.90;;;3.38;;
77362;SDS011;66428;47.322;9.432;2024-03-22T05:35:08;6.40;;;3.47;;
77362;SDS011;66428;47.322;9.432;2024-03-22T05:37:37;4.82;;;3.25;;
77362;SDS011;66428;47.322;9.432;2024-03-22T05:40:13;4.32;;;3.10;;
77362;SDS011;66428;47.322;9.432;2024-03-22T05:42:47;6.05;;;3.38;;
77362;SDS011;66428;47.322;9.432;2024-03-22T05:45:19;4.18;;;3.50;;
77362;SDS011;66428;47.322;9.432;2024-03-22T05:55:45;6.00;;;3.38;;
77362;SDS011;66428;47.322;9.432;2024-03-22T05:58:13;6.57;;;3.50;;
77362;SDS011;66428;47.322;9.432;2024-03-22T06:00:39;7.82;;;4.10;;
77362;SDS011;66428;47.322;9.432;2024-03-22T06:03:07;7.03;;;4.07;;
77362;SDS011;66428;47.322;9.432;2024-03-22T06:05:33;7.65;;;4.35;;
77362;SDS011;66428;47.322;9.432;2024-03-22T06:08:00;8.18;;;3.90;;
77362;SDS011;66428;47.322;9.432;2024-03-22T06:10:26;5.35;;;3.50;;
77362;SDS011;66428;47.322;9.432;2024-03-22T06:12:55;3.67;;;2.53;;
77362;SDS011;66428;47.322;9.432;2024-03-22T06:15:21;4.80;;;2.55;;
77362;SDS011;66428;47.322;9.432;2024-03-22T06:17:48;5.45;;;2.60;;
77362;SDS011;66428;47.322;9.432;2024-03-22T06:20:15;5.80;;;2.88;;
77362;SDS011;66428;47.322;9.432;2024-03-22T06:22:43;6.28;;;2.72;;
77362;SDS011;66428;47.322;9.432;2024-03-22T06:25:09;4.22;;;2.60;;
77362;SDS011;66428;47.322;9.432;2024-03-22T06:27:36;4.65;;;2.33;;
77362;SDS011;66428;47.322;9.432;2024-03-22T06:30:06;4.60;;;2.42;;
77362;SDS011;66428;47.322;9.432;2024-03-22T06:32:33;3.83;;;2.30;;
77362;SDS011;66428;47.322;9.432;2024-03-22T06:34:59;3.80;;;2.22;;
77362;SDS011;66428;47.322;9.432;2024-03-22T06:37:28;2.92;;;2.10;;
77362;SDS011;66428;47.322;9.432;2024-03-22T06:39:54;4.18;;;2.50;;
77362;SDS011;66428;47.322;9.432;2024-03-22T06:42:21;3.75;;;2.35;;
77362;SDS011;66428;47.322;9.432;2024-03-22T06:44:49;3.70;;;2.28;;
77362;SDS011;66428;47.322;9.432;2024-03-22T06:47:18;4.55;;;2.50;;
77362;SDS011;66428;47.322;9.432;2024-03-22T06:49:46;5.93;;;2.35;;
77362;SDS011;66428;47.322;9.432;2024-03-22T06:52:15;3.88;;;2.30;;
77362;SDS011;66428;47.322;9.432;2024-03-22T06:54:42;8.70;;;4.30;;
77362;SDS011;66428;47.322;9.432;2024-03-22T06:57:09;11.77;;;4.65;;
77362;SDS011;66428;47.322;9.432;2024-03-22T06:59:35;6.20;;;3.92;;
77362;SDS011;66428;47.322;9.432;2024-03-22T07:02:05;6.18;;;3.83;;
77362;SDS011;66428;47.322;9.432;2024-03-22T07:04:34;4.45;;;2.97;;
77362;SDS011;66428;47.322;9.432;2024-03-22T07:07:03;3.47;;;2.65;;
77362;SDS011;66428;47.322;9.432;2024-03-22T07:09:32;4.28;;;2.47;;
77362;SDS011;66428;47.322;9.432;2024-03-22T07:12:00;3.83;;;2.03;;
77362;SDS011;66428;47.322;9.432;2024-03-22T07:14:29;4.43;;;2.53;;
77362;SDS011;66428;47.322;9.432;2024-03-22T07:16:57;3.17;;;1.88;;
77362;SDS011;66428;47.322;9.432;2024-03-22T07:19:24;3.35;;;2.10;;
77362;SDS011;66428;47.322;9.432;2024-03-22T07:22:01;3.15;;;2.00;;
77362;SDS011;66428;47.322;9.432;2024-03-22T07:24:35;4.18;;;2.35;;
77362;SDS011;66428;47.322;9.432;2024-03-22T07:27:05;2.92;;;2.08;;
77362;SDS011;66428;47.322;9.432;2024-03-22T07:29:41;5.22;;;2.20;;
77362;SDS011;66428;47.322;9.432;2024-03-22T07:32:38;7.70;;;4.75;;
77362;SDS011;66428;47.322;9.432;2024-03-22T07:36:45;5.43;;;3.33;;
77362;SDS011;66428;47.322;9.432;2024-03-22T07:44:17;9.20;;;1.95;;
77362;SDS011;66428;47.322;9.432;2024-03-22T07:48:11;3.92;;;1.80;;
77362;SDS011;66428;47.322;9.432;2024-03-22T07:51:58;4.82;;;2.35;;
77362;SDS011;66428;47.322;9.432;2024-03-22T07:55:56;5.47;;;2.85;;
77362;SDS011;66428;47.322;9.432;2024-03-22T07:59:09;5.25;;;1.85;;
77362;SDS011;66428;47.322;9.432;2024-03-22T08:01:57;3.97;;;1.60;;
77362;SDS011;66428;47.322;9.432;2024-03-22T08:04:44;1.95;;;1.33;;
77362;SDS011;66428;47.322;9.432;2024-03-22T08:41:30;3.92;;;1.70;;
77362;SDS011;66428;47.322;9.432;2024-03-22T09:21:58;3.90;;;1.77;;
77362;SDS011;66428;47.322;9.432;2024-03-22T09:25:44;2.80;;;1.73;;
77362;SDS011;66428;47.322;9.432;2024-03-22T09:35:30;3.45;;;1.40;;
77362;SDS011;66428;47.322;9.432;2024-03-22T09:49:17;5.45;;;1.77;;
77362;SDS011;66428;47.322;9.432;2024-03-22T09:52:03;4.00;;;1.77;;
77362;SDS011;66428;47.322;9.432;2024-03-22T09:55:11;4.28;;;2.72;;
77362;SDS011;66428;47.322;9.432;2024-03-22T09:58:26;4.88;;;2.35;;
77362;SDS011;66428;47.322;9.432;2024-03-22T10:01:46;3.05;;;1.70;;
77362;SDS011;66428;47.322;9.432;2024-03-22T10:04:28;6.13;;;2.35;;
77362;SDS011;66428;47.322;9.432;2024-03-22T10:08:33;2.28;;;1.60;;
77362;SDS011;66428;47.322;9.432;2024-03-22T10:11:26;3.65;;;1.80;;
77362;SDS011;66428;47.322;9.432;2024-03-22T10:14:24;4.63;;;1.90;;
77362;SDS011;66428;47.322;9.432;2024-03-22T10:16:57;2.88;;;2.00;;
77362;SDS011;66428;47.322;9.432;2024-03-22T10:19:45;3.08;;;1.90;;
77362;SDS011;66428;47.322;9.432;2024-03-22T10:25:39;3.78;;;1.73;;
77362;SDS011;66428;47.322;9.432;2024-03-22T10:28:44;4.05;;;2.05;;
77362;SDS011;66428;47.322;9.432;2024-03-22T10:31:46;2.90;;;1.92;;
77362;SDS011;66428;47.322;9.432;2024-03-22T10:41:12;3.78;;;1.90;;
77362;SDS011;66428;47.322;9.432;2024-03-22T10:43:41;3.03;;;1.60;;
77362;SDS011;66428;47.322;9.432;2024-03-22T10:46:15;3.40;;;1.63;;
77362;SDS011;66428;47.322;9.432;2024-03-22T10:53:01;3.13;;;1.38;;
77362;SDS011;66428;47.322;9.432;2024-03-22T11:13:48;3.15;;;1.52;;
77362;SDS011;66428;47.322;9.432;2024-03-22T11:17:00;3.40;;;1.40;;
77362;SDS011;66428;47.322;9.432;2024-03-22T11:19:58;1.95;;;1.17;;
77362;SDS011;66428;47.322;9.432;2024-03-22T11:22:36;2.35;;;1.00;;
77362;SDS011;66428;47.322;9.432;2024-03-22T11:25:32;2.10;;;1.40;;
77362;SDS011;66428;47.322;9.432;2024-03-22T11:28:04;2.22;;;1.20;;
77362;SDS011;66428;47.322;9.432;2024-03-22T11:30:45;3.03;;;1.40;;
77362;SDS011;66428;47.322;9.432;2024-03-22T11:33:23;1.60;;;1.02;;
77362;SDS011;66428;47.322;9.432;2024-03-22T11:35:49;1.85;;;1.20;;
77362;SDS011;66428;47.322;9.432;2024-03-22T11:38:30;4.28;;;1.40;;
77362;SDS011;66428;47.322;9.432;2024-03-22T11:41:02;2.35;;;1.25;;
77362;SDS011;66428;47.322;9.432;2024-03-22T11:43:47;2.88;;;1.40;;
77362;SDS011;66428;47.322;9.432;2024-03-22T11:46:19;1.83;;;1.10;;
77362;SDS011;66428;47.322;9.432;2024-03-22T11:49:04;2.25;;;1.20;;
77362;SDS011;66428;47.322;9.432;2024-03-22T11:51:51;1.95;;;1.17;;
77362;SDS011;66428;47.322;9.432;2024-03-22T11:54:35;2.08;;;1.23;;
77362;SDS011;66428;47.322;9.432;2024-03-22T11:57:07;3.97;;;1.05;;
77362;SDS011;66428;47.322;9.432;2024-03-22T11:59:43;2.00;;;1.27;;
77362;SDS011;66428;47.322;9.432;2024-03-22T12:02:17;1.65;;;0.98;;
77362;SDS011;66428;47.322;9.432;2024-03-22T12:05:00;1.90;;;1.10;;
77362;SDS011;66428;47.322;9.432;2024-03-22T12:07:28;3.25;;;1.50;;
77362;SDS011;66428;47.322;9.432;2024-03-22T12:09:54;1.95;;;1.35;;
77362;SDS011;66428;47.322;9.432;2024-03-22T12:12:42;1.88;;;1.10;;
77362;SDS011;66428;47.322;9.432;2024-03-22T12:15:08;2.17;;;1.17;;
77362;SDS011;66428;47.322;9.432;2024-03-22T12:17:44;2.42;;;1.60;;
77362;SDS011;66428;47.322;9.432;2024-03-22T12:20:11;2.55;;;1.38;;
77362;SDS011;66428;47.322;9.432;2024-03-22T12:22:42;2.05;;;1.20;;
77362;SDS011;66428;47.322;9.432;2024-03-22T12:25:09;2.85;;;1.23;;
77362;SDS011;66428;47.322;9.432;2024-03-22T12:27:38;4.78;;;1.15;;
77362;SDS011;66428;47.322;9.432;2024-03-22T12:30:04;2.60;;;1.50;;
77362;SDS011;66428;47.322;9.432;2024-03-22T12:32:35;2.58;;;1.27;;
77362;SDS011;66428;47.322;9.432;2024-03-22T12:35:05;2.58;;;1.42;;
77362;SDS011;66428;47.322;9.432;2024-03-22T12:37:39;2.75;;;1.35;;
77362;SDS011;66428;47.322;9.432;2024-03-22T12:40:06;1.85;;;1.13;;
77362;SDS011;66428;47.322;9.432;2024-03-22T12:42:40;6.05;;;1.17;;
77362;SDS011;66428;47.322;9.432;2024-03-22T12:45:17;2.20;;;1.10;;
77362;SDS011;66428;47.322;9.432;2024-03-22T12:48:01;1.75;;;1.00;;
77362;SDS011;66428;47.322;9.432;2024-03-22T12:50:42;2.22;;;1.40;;
77362;SDS011;66428;47.322;9.432;2024-03-22T12:53:20;1.63;;;1.17;;
77362;SDS011;66428;47.322;9.432;2024-03-22T12:55:46;1.58;;;1.20;;
77362;SDS011;66428;47.322;9.432;2024-03-22T12:58:16;2.72;;;1.20;;
77362;SDS011;66428;47.322;9.432;2024-03-22T13:00:46;1.98;;;0.90;;
77362;SDS011;66428;47.322;9.432;2024-03-22T13:03:17;1.63;;;1.17;;
77362;SDS011;66428;47.322;9.432;2024-03-22T13:05:54;2.25;;;1.40;;
77362;SDS011;66428;47.322;9.432;2024-03-22T13:08:28;2.35;;;1.50;;
77362;SDS011;66428;47.322;9.432;2024-03-22T13:10:56;2.88;;;1.30;;
77362;SDS011;66428;47.322;9.432;2024-03-22T13:13:29;2.05;;;1.25;;
77362;SDS011;66428;47.322;9.432;2024-03-22T13:15:57;2.08;;;1.15;;
77362;SDS011;66428;47.322;9.432;2024-03-22T13:18:31;2.13;;;1.60;;
77362;SDS011;66428;47.322;9.432;2024-03-22T13:21:00;3.25;;;1.50;;
77362;SDS011;66428;47.322;9.432;2024-03-22T13:23:30;6.22;;;1.80;;
77362;SDS011;66428;47.322;9.432;2024-03-22T13:26:04;3.30;;;1.55;;
77362;SDS011;66428;47.322;9.432;2024-03-22T13:28:32;5.18;;;1.60;;
77362;SDS011;66428;47.322;9.432;2024-03-22T13:30:59;3.78;;;1.52;;
77362;SDS011;66428;47.322;9.432;2024-03-22T13:33:27;3.88;;;1.58;;
77362;SDS011;66428;47.322;9.432;2024-03-22T13:36:03;3.47;;;1.70;;
77362;SDS011;66428;47.322;9.432;2024-03-22T13:38:32;4.65;;;1.88;;
77362;SDS011;66428;47.322;9.432;2024-03-22T13:41:12;2.05;;;1.38;;
77362;SDS011;66428;47.322;9.432;2024-03-22T13:46:16;4.68;;;1.88;;
77362;SDS011;66428;47.322;9.432;2024-03-22T13:49:03;2.67;;;1.48;;
77362;SDS011;66428;47.322;9.432;2024-03-22T13:51:32;3.60;;;2.00;;
77362;SDS011;66428;47.322;9.432;2024-03-22T13:53:59;2.78;;;1.63;;
77362;SDS011;66428;47.322;9.432;2024-03-22T13:56:25;2.40;;;1.60;;
77362;SDS011;66428;47.322;9.432;2024-03-22T13:58:52;2.75;;;1.73;;
77362;SDS011;66428;47.322;9.432;2024-03-22T14:01:19;3.40;;;2.13;;
77362;SDS011;66428;47.322;9.432;2024-03-22T14:03:46;4.38;;;2.33;;
77362;SDS011;66428;47.322;9.432;2024-03-22T14:06:12;4.57;;;2.10;;
77362;SDS011;66428;47.322;9.432;2024-03-22T14:08:42;5.43;;;1.92;;
77362;SDS011;66428;47.322;9.432;2024-03-22T14:11:15;3.92;;;2.22;;
77362;SDS011;66428;47.322;9.432;2024-03-22T14:13:46;3.50;;;2.28;;
77362;SDS011;66428;47.322;9.432;2024-03-22T14:16:16;3.92;;;1.98;;
77362;SDS011;66428;47.322;9.432;2024-03-22T14:18:52;3.03;;;2.13;;
77362;SDS011;66428;47.322;9.432;2024-03-22T14:21:33;5.15;;;1.95;;
77362;SDS011;66428;47.322;9.432;2024-03-22T14:24:02;4.13;;;2.00;;
77362;SDS011;66428;47.322;9.432;2024-03-22T14:26:32;2.80;;;1.80;;
77362;SDS011;66428;47.322;9.432;2024-03-22T14:29:01;5.07;;;2.50;;
77362;SDS011;66428;47.322;9.432;2024-03-22T14:31:35;3.67;;;2.22;;
77362;SDS011;66428;47.322;9.432;2024-03-22T14:34:02;3.95;;;2.22;;
77362;SDS011;66428;47.322;9.432;2024-03-22T14:36:29;3.80;;;2.30;;
77362;SDS011;66428;47.322;9.432;2024-03-22T14:38:57;3.70;;;2.40;;
77362;SDS011;66428;47.322;9.432;2024-03-22T14:41:51;3.88;;;2.03;;
77362;SDS011;66428;47.322;9.432;2024-03-22T14:44:18;3.92;;;2.03;;
77362;SDS011;66428;47.322;9.432;2024-03-22T14:46:45;3.33;;;2.00;;
77362;SDS011;66428;47.322;9.432;2024-03-22T14:49:19;2.90;;;1.92;;
77362;SDS011;66428;47.322;9.432;2024-03-22T14:51:48;3.13;;;2.03;;
77362;SDS011;66428;47.322;9.432;2024-03-22T14:54:19;4.50;;;2.20;;
77362;SDS011;66428;47.322;9.432;2024-03-22T14:56:55;4.90;;;2.03;;
77362;SDS011;66428;47.322;9.432;2024-03-22T14:59:29;3.20;;;2.17;;
77362;SDS011;66428;47.322;9.432;2024-03-22T15:01:59;5.20;;;1.90;;
77362;SDS011;66428;47.322;9.432;2024-03-22T15:04:31;3.40;;;2.63;;
77362;SDS011;66428;47.322;9.432;2024-03-22T15:07:08;4.60;;;1.85;;
77362;SDS011;66428;47.322;9.432;2024-03-22T15:09:35;4.90;;;1.95;;
77362;SDS011;66428;47.322;9.432;2024-03-22T15:12:04;4.55;;;2.28;;
77362;SDS011;66428;47.322;9.432;2024-03-22T15:14:37;3.60;;;2.10;;
77362;SDS011;66428;47.322;9.432;2024-03-22T15:17:19;3.28;;;2.35;;
77362;SDS011;66428;47.322;9.432;2024-03-22T15:19:52;4.22;;;2.20;;
77362;SDS011;66428;47.322;9.432;2024-03-22T15:22:25;3.40;;;2.05;;
77362;SDS011;66428;47.322;9.432;2024-03-22T15:24:55;3.17;;;2.03;;
77362;SDS011;66428;47.322;9.432;2024-03-22T15:27:30;3.58;;;1.92;;
77362;SDS011;66428;47.322;9.432;2024-03-22T15:29:57;4.55;;;2.20;;
77362;SDS011;66428;47.322;9.432;2024-03-22T15:32:37;4.70;;;1.90;;
77362;SDS011;66428;47.322;9.432;2024-03-22T15:35:07;2.53;;;1.73;;
77362;SDS011;66428;47.322;9.432;2024-03-22T15:37:39;3.45;;;2.28;;
77362;SDS011;66428;47.322;9.432;2024-03-22T15:40:15;3.60;;;1.50;;
77362;SDS011;66428;47.322;9.432;2024-03-22T15:42:45;4.72;;;1.90;;
77362;SDS011;66428;47.322;9.432;2024-03-22T15:45:14;3.60;;;1.83;;
77362;SDS011;66428;47.322;9.432;2024-03-22T15:47:46;8.88;;;3.50;;
77362;SDS011;66428;47.322;9.432;2024-03-22T15:50:23;14.77;;;7.03;;
77362;SDS011;66428;47.322;9.432;2024-03-22T15:53:00;36.53;;;17.65;;
77362;SDS011;66428;47.322;9.432;2024-03-22T15:55:36;24.52;;;12.35;;
77362;SDS011;66428;47.322;9.432;2024-03-22T15:58:04;18.33;;;8.15;;
77362;SDS011;66428;47.322;9.432;2024-03-22T16:00:34;29.17;;;15.13;;
77362;SDS011;66428;47.322;9.432;2024-03-22T16:03:00;5.80;;;3.03;;
77362;SDS011;66428;47.322;9.432;2024-03-22T16:05:29;12.52;;;8.18;;
77362;SDS011;66428;47.322;9.432;2024-03-22T16:07:59;8.70;;;6.50;;
77362;SDS011;66428;47.322;9.432;2024-03-22T16:10:25;5.18;;;3.47;;
77362;SDS011;66428;47.322;9.432;2024-03-22T16:12:52;9.32;;;3.67;;
77362;SDS011;66428;47.322;9.432;2024-03-22T16:15:21;5.55;;;2.25;;
77362;SDS011;66428;47.322;9.432;2024-03-22T16:17:47;4.65;;;2.35;;
77362;SDS011;66428;47.322;9.432;2024-03-22T16:20:15;5.93;;;2.85;;
77362;SDS011;66428;47.322;9.432;2024-03-22T16:22:44;11.18;;;5.82;;
77362;SDS011;66428;47.322;9.432;2024-03-22T16:25:19;5.80;;;2.70;;
77362;SDS011;66428;47.322;9.432;2024-03-22T16:27:45;3.65;;;2.17;;
77362;SDS011;66428;47.322;9.432;2024-03-22T16:30:12;4.78;;;2.55;;
77362;SDS011;66428;47.322;9.432;2024-03-22T16:32:41;6.10;;;2.97;;
77362;SDS011;66428;47.322;9.432;2024-03-22T16:35:09;10.40;;;4.88;;
77362;SDS011;66428;47.322;9.432;2024-03-22T16:37:40;5.05;;;3.85;;
77362;SDS011;66428;47.322;9.432;2024-03-22T16:40:07;5.45;;;2.55;;
77362;SDS011;66428;47.322;9.432;2024-03-22T16:42:42;4.43;;;2.05;;
77362;SDS011;66428;47.322;9.432;2024-03-22T16:45:11;6.03;;;1.80;;
77362;SDS011;66428;47.322;9.432;2024-03-22T16:47:37;6.18;;;2.90;;
77362;SDS011;66428;47.322;9.432;2024-03-22T16:50:06;4.50;;;1.90;;
77362;SDS011;66428;47.322;9.432;2024-03-22T16:52:33;5.13;;;2.10;;
77362;SDS011;66428;47.322;9.432;2024-03-22T16:55:00;8.55;;;2.10;;
77362;SDS011;66428;47.322;9.432;2024-03-22T16:57:26;3.53;;;1.83;;
77362;SDS011;66428;47.322;9.432;2024-03-22T16:59:53;5.45;;;1.90;;
77362;SDS011;66428;47.322;9.432;2024-03-22T17:04:48;3.95;;;1.75;;
77362;SDS011;66428;47.322;9.432;2024-03-22T17:07:15;7.07;;;2.15;;
77362;SDS011;66428;47.322;9.432;2024-03-22T17:09:44;4.07;;;1.77;;
77362;SDS011;66428;47.322;9.432;2024-03-22T17:12:11;4.82;;;2.28;;
77362;SDS011;66428;47.322;9.432;2024-03-22T17:14:41;4.65;;;2.60;;
77362;SDS011;66428;47.322;9.432;2024-03-22T17:17:07;5.65;;;2.63;;
77362;SDS011;66428;47.322;9.432;2024-03-22T17:19:36;4.60;;;2.47;;
77362;SDS011;66428;47.322;9.432;2024-03-22T17:24:33;6.05;;;2.80;;
77362;SDS011;66428;47.322;9.432;2024-03-22T17:26:59;4.18;;;2.50;;
77362;SDS011;66428;47.322;9.432;2024-03-22T17:29:26;5.50;;;2.80;;
77362;SDS011;66428;47.322;9.432;2024-03-22T17:34:19;5.35;;;2.50;;
77362;SDS011;66428;47.322;9.432;2024-03-22T17:39:12;2.30;;;1.50;;
77362;SDS011;66428;47.322;9.432;2024-03-22T17:44:06;3.30;;;1.85;;
77362;SDS011;66428;47.322;9.432;2024-03-22T17:46:32;4.47;;;2.10;;
77362;SDS011;66428;47.322;9.432;2024-03-22T17:48:59;5.00;;;2.17;;
77362;SDS011;66428;47.322;9.432;2024-03-22T17:53:51;4.30;;;2.53;;
77362;SDS011;66428;47.322;9.432;2024-03-22T17:58:43;3.40;;;2.10;;
77362;SDS011;66428;47.322;9.432;2024-03-22T18:01:13;6.22;;;2.85;;
77362;SDS011;66428;47.322;9.432;2024-03-22T18:03:40;5.55;;;2.60;;
77362;SDS011;66428;47.322;9.432;2024-03-22T18:06:06;6.68;;;2.30;;
77362;SDS011;66428;47.322;9.432;2024-03-22T18:08:35;4.47;;;2.10;;
77362;SDS011;66428;47.322;9.432;2024-03-22T18:11:01;3.63;;;1.90;;
77362;SDS011;66428;47.322;9.432;2024-03-22T18:13:28;2.97;;;2.10;;
77362;SDS011;66428;47.322;9.432;2024-03-22T18:15:58;5.13;;;3.20;;
77362;SDS011;66428;47.322;9.432;2024-03-22T18:18:30;4.25;;;3.10;;
77362;SDS011;66428;47.322;9.432;2024-03-22T18:20:56;5.68;;;2.70;;
77362;SDS011;66428;47.322;9.432;2024-03-22T18:23:23;3.50;;;2.20;;
77362;SDS011;66428;47.322;9.432;2024-03-22T18:25:54;4.05;;;2.00;;
77362;SDS011;66428;47.322;9.432;2024-03-22T18:28:21;3.30;;;1.80;;
77362;SDS011;66428;47.322;9.432;2024-03-22T18:30:47;3.33;;;2.35;;
77362;SDS011;66428;47.322;9.432;2024-03-22T18:33:15;4.57;;;2.03;;